createdAt,value
2023-04-15T00:00:32.929Z,54.60
2023-04-15T00:02:59.732Z,54.60
2023-04-15T00:05:26.457Z,54.60
2023-04-15T00:07:53.078Z,54.70
2023-04-15T00:10:19.814Z,54.70
2023-04-15T00:12:46.470Z,54.70
2023-04-15T00:15:13.068Z,54.80
2023-04-15T00:17:39.761Z,54.90
2023-04-15T00:20:06.886Z,54.90
2023-04-15T00:22:33.475Z,54.90
2023-04-15T00:25:00.060Z,54.80
2023-04-15T00:27:26.654Z,54.90
2023-04-15T00:29:53.292Z,54.80
2023-04-15T00:32:19.888Z,54.90
2023-04-15T00:34:46.478Z,54.90
2023-04-15T00:37:13.107Z,55.10
2023-04-15T00:39:39.798Z,55.10
2023-04-15T00:42:06.469Z,55.30
2023-04-15T00:44:33.526Z,55.30
2023-04-15T00:47:00.782Z,55.30
2023-04-15T00:49:27.336Z,55.30
2023-04-15T00:51:53.964Z,55.30
2023-04-15T00:54:20.578Z,55.40
2023-04-15T00:56:47.265Z,55.40
2023-04-15T00:59:14.546Z,55.50
2023-04-15T01:01:41.204Z,55.80
2023-04-15T01:04:07.922Z,55.90
2023-04-15T01:06:34.571Z,55.90
2023-04-15T01:09:01.368Z,56.00
2023-04-15T01:11:28.153Z,56.20
2023-04-15T01:13:55.536Z,56.30
2023-04-15T01:16:22.198Z,56.40
2023-04-15T01:18:49.003Z,56.40
2023-04-15T01:21:15.582Z,56.30
2023-04-15T01:23:42.203Z,56.40
2023-04-15T01:26:08.838Z,56.50
2023-04-15T01:28:36.171Z,56.40
2023-04-15T01:31:09.547Z,56.50
2023-04-15T01:33:36.269Z,56.60
2023-04-15T01:36:03.045Z,56.60
2023-04-15T01:38:29.679Z,56.70
2023-04-15T01:40:56.449Z,56.60
2023-04-15T01:43:23.077Z,56.70
2023-04-15T01:45:49.715Z,56.70
2023-04-15T01:48:16.374Z,56.90
2023-04-15T01:50:43.373Z,57.00
2023-04-15T01:53:10.011Z,57.30
2023-04-15T01:55:36.850Z,57.20
2023-04-15T01:58:03.713Z,57.30
2023-04-15T02:00:30.304Z,57.40
2023-04-15T02:03:00.111Z,57.60
2023-04-15T02:05:26.778Z,57.70
2023-04-15T02:07:53.497Z,57.50
2023-04-15T02:10:20.100Z,57.60
2023-04-15T02:12:46.710Z,57.70
2023-04-15T02:15:13.350Z,57.60
2023-04-15T02:17:39.980Z,57.60
2023-04-15T02:20:07.298Z,57.60
2023-04-15T02:22:34.030Z,57.60
2023-04-15T02:25:00.679Z,57.60
2023-04-15T02:27:27.254Z,57.70
2023-04-15T02:29:53.860Z,57.90
2023-04-15T02:32:20.610Z,57.90
2023-04-15T02:34:47.206Z,57.90
2023-04-15T02:37:14.807Z,58.00
2023-04-15T02:39:41.446Z,58.10
2023-04-15T02:42:08.014Z,57.80
2023-04-15T02:44:34.650Z,57.80
2023-04-15T02:47:01.279Z,57.80
2023-04-15T02:49:27.885Z,57.80
2023-04-15T02:51:54.522Z,57.70
2023-04-15T02:54:21.662Z,58.10
2023-04-15T02:56:48.457Z,58.20
2023-04-15T02:59:15.294Z,58.80
2023-04-15T03:01:42.084Z,59.40
2023-04-15T03:04:11.074Z,59.80
2023-04-15T03:06:37.843Z,60.10
2023-04-15T03:09:04.418Z,60.40
2023-04-15T03:11:31.082Z,61.00
2023-04-15T03:13:57.845Z,61.30
2023-04-15T03:16:25.019Z,61.60
2023-04-15T03:18:51.694Z,61.80
2023-04-15T03:21:18.334Z,61.90
2023-04-15T03:23:45.050Z,62.10
2023-04-15T03:26:14.472Z,62.40
2023-04-15T03:28:41.132Z,62.60
2023-04-15T03:31:07.773Z,62.70
2023-04-15T03:33:34.435Z,62.70
2023-04-15T03:36:01.044Z,62.70
2023-04-15T03:38:27.617Z,62.60
2023-04-15T03:40:54.199Z,62.70
2023-04-15T03:43:20.834Z,62.90
2023-04-15T03:45:47.437Z,63.20
2023-04-15T03:48:17.740Z,62.90
2023-04-15T03:50:45.277Z,62.80
2023-04-15T03:53:11.986Z,63.00
2023-04-15T03:55:38.636Z,63.10
2023-04-15T03:58:05.222Z,63.10
2023-04-15T04:00:31.853Z,63.20
2023-04-15T04:02:58.784Z,63.50
2023-04-15T04:05:25.540Z,63.60
2023-04-15T04:07:52.183Z,63.60
2023-04-15T04:10:18.916Z,63.80
2023-04-15T04:12:45.564Z,63.80
2023-04-15T04:15:12.246Z,63.80
2023-04-15T04:17:38.987Z,63.70
2023-04-15T04:20:06.307Z,63.60
2023-04-15T04:22:38.086Z,63.50
2023-04-15T04:25:04.949Z,63.40
2023-04-15T04:27:31.554Z,63.60
2023-04-15T04:29:58.158Z,63.60
2023-04-15T04:32:24.855Z,63.70
2023-04-15T04:34:51.576Z,63.70
2023-04-15T04:37:18.271Z,64.00
2023-04-15T04:39:44.838Z,64.00
2023-04-15T04:42:11.428Z,64.00
2023-04-15T04:44:37.989Z,64.10
2023-04-15T04:47:04.613Z,64.20
2023-04-15T04:49:31.268Z,64.30
2023-04-15T04:51:57.890Z,64.20
2023-04-15T04:54:24.470Z,64.20
2023-04-15T04:56:51.185Z,64.30
2023-04-15T04:59:19.407Z,64.20
2023-04-15T05:01:46.158Z,64.20
2023-04-15T05:04:12.855Z,64.20
2023-04-15T05:06:39.552Z,64.20
2023-04-15T05:09:06.160Z,64.30
2023-04-15T05:11:33.074Z,64.30
2023-04-15T05:13:59.831Z,64.40
2023-04-15T05:16:26.530Z,64.50
2023-04-15T05:18:53.254Z,64.50
2023-04-15T05:21:20.201Z,64.60
2023-04-15T05:23:46.962Z,64.60
2023-04-15T05:26:13.577Z,64.60
2023-04-15T05:28:40.209Z,64.70
2023-04-15T05:31:06.784Z,64.80
2023-04-15T05:33:33.444Z,64.80
2023-04-15T05:36:00.042Z,64.90
2023-04-15T05:38:26.636Z,65.10
2023-04-15T05:40:53.256Z,65.10
2023-04-15T05:43:19.856Z,65.00
2023-04-15T05:45:46.563Z,65.10
2023-04-15T05:48:13.256Z,65.20
2023-04-15T05:50:44.730Z,65.10
2023-04-15T05:53:11.500Z,65.10
2023-04-15T05:55:39.496Z,65.00
2023-04-15T05:58:06.117Z,65.00
2023-04-15T06:00:32.741Z,64.90
2023-04-15T06:02:59.399Z,64.90
2023-04-15T06:05:26.213Z,64.90
2023-04-15T06:07:52.867Z,64.90
2023-04-15T06:10:19.498Z,65.00
2023-04-15T06:12:46.124Z,65.00
2023-04-15T06:15:14.053Z,65.00
2023-04-15T06:17:40.700Z,65.00
2023-04-15T06:20:07.956Z,64.90
2023-04-15T06:22:34.630Z,64.70
2023-04-15T06:25:01.285Z,64.60
2023-04-15T06:27:27.995Z,64.60
2023-04-15T06:29:54.718Z,64.40
2023-04-15T06:32:21.413Z,64.30
2023-04-15T06:34:48.162Z,64.20
2023-04-15T06:37:14.870Z,63.90
2023-04-15T06:39:41.921Z,63.70
2023-04-15T06:42:08.922Z,63.50
2023-04-15T06:44:35.620Z,63.20
2023-04-15T06:47:02.409Z,62.90
2023-04-15T06:49:29.196Z,62.60
2023-04-15T06:51:55.829Z,62.30
2023-04-15T06:54:22.895Z,62.10
2023-04-15T06:56:49.511Z,62.00
2023-04-15T06:59:17.079Z,61.90
2023-04-15T07:01:43.800Z,61.90
2023-04-15T07:04:10.615Z,61.80
2023-04-15T07:06:37.274Z,61.70
2023-04-15T07:09:04.215Z,61.70
2023-04-15T07:11:31.169Z,61.70
2023-04-15T07:14:00.868Z,61.70
2023-04-15T07:16:29.786Z,61.90
2023-04-15T07:18:56.576Z,62.20
2023-04-15T07:21:23.915Z,61.80
2023-04-15T07:23:50.553Z,61.90
2023-04-15T07:26:17.153Z,61.90
2023-04-15T07:28:43.712Z,61.90
2023-04-15T07:31:10.408Z,61.70
2023-04-15T07:33:37.106Z,61.80
2023-04-15T07:36:03.831Z,61.80
2023-04-15T07:38:30.559Z,61.90
2023-04-15T07:40:57.203Z,61.80
2023-04-15T07:43:24.009Z,61.90
2023-04-15T07:45:50.824Z,61.80
2023-04-15T07:48:17.478Z,61.90
2023-04-15T07:50:44.108Z,61.90
2023-04-15T07:53:10.839Z,61.70
2023-04-15T07:55:37.484Z,61.70
2023-04-15T07:58:04.098Z,61.80
2023-04-15T08:00:33.733Z,62.20
2023-04-15T08:03:00.460Z,62.50
2023-04-15T08:05:27.349Z,61.20
2023-04-15T08:07:53.978Z,61.30
2023-04-15T08:10:20.962Z,60.30
2023-04-15T08:12:48.051Z,58.60
2023-04-15T08:15:14.948Z,57.40
2023-04-15T08:17:41.668Z,56.20
2023-04-15T08:20:08.496Z,55.50
2023-04-15T08:22:35.467Z,54.30
2023-04-15T08:25:02.190Z,53.40
2023-04-15T08:27:28.952Z,52.50
2023-04-15T08:29:55.636Z,51.80
2023-04-15T08:32:22.559Z,51.10
2023-04-15T08:34:49.618Z,50.60
2023-04-15T08:37:16.197Z,50.10
2023-04-15T08:39:42.879Z,49.00
2023-04-15T08:42:12.310Z,48.00
2023-04-15T08:44:39.106Z,47.90
2023-04-15T08:47:08.491Z,47.20
2023-04-15T08:49:39.099Z,46.10
2023-04-15T08:52:05.972Z,46.10
2023-04-15T08:54:32.579Z,46.00
2023-04-15T08:56:59.137Z,45.60
2023-04-15T08:59:27.915Z,44.60
2023-04-15T09:01:54.544Z,44.50
2023-04-15T09:04:21.434Z,44.00
2023-04-15T09:06:48.044Z,43.00
2023-04-15T09:09:14.843Z,42.90
2023-04-15T09:11:41.905Z,43.00
2023-04-15T09:14:08.742Z,42.40
2023-04-15T09:17:01.511Z,42.60
2023-04-15T09:19:28.434Z,41.60
2023-04-15T09:21:58.437Z,41.60
2023-04-15T09:24:25.832Z,41.40
2023-04-15T09:26:53.242Z,41.00
2023-04-15T09:29:19.909Z,40.80
2023-04-15T09:31:46.622Z,40.60
2023-04-15T09:34:14.146Z,40.20
2023-04-15T09:37:00.039Z,39.40
2023-04-15T09:39:26.846Z,38.70
2023-04-15T09:42:06.897Z,39.30
2023-04-15T09:44:33.863Z,37.40
2023-04-15T09:47:00.962Z,38.90
2023-04-15T09:49:27.587Z,38.20
2023-04-15T09:52:05.045Z,37.50
2023-04-15T09:54:37.793Z,37.30
2023-04-15T09:57:10.573Z,37.50
2023-04-15T09:59:37.250Z,36.30
2023-04-15T10:02:06.841Z,37.10
2023-04-15T10:04:35.734Z,36.00
2023-04-15T10:07:03.979Z,35.70
2023-04-15T10:09:30.857Z,35.30
2023-04-15T10:12:04.137Z,35.20
2023-04-15T10:14:41.556Z,35.40
2023-04-15T10:17:08.464Z,34.50
2023-04-15T10:19:37.307Z,34.10
2023-04-15T10:22:04.114Z,33.30
2023-04-15T10:24:34.330Z,32.40
2023-04-15T10:27:00.987Z,32.60
2023-04-15T10:29:27.648Z,32.30
2023-04-15T10:31:57.304Z,32.30
2023-04-15T10:34:24.216Z,32.70
2023-04-15T10:36:50.958Z,32.60
2023-04-15T10:39:36.394Z,32.90
2023-04-15T10:42:18.536Z,32.60
2023-04-15T10:44:49.866Z,32.80
2023-04-15T10:47:18.349Z,32.50
2023-04-15T10:49:51.437Z,31.40
2023-04-15T10:52:22.222Z,30.50
2023-04-15T10:54:48.839Z,29.70
2023-04-15T10:57:27.521Z,30.30
2023-04-15T11:00:09.567Z,29.90
2023-04-15T11:02:42.283Z,29.40
2023-04-15T11:05:10.119Z,28.50
2023-04-15T11:07:50.959Z,28.40
2023-04-15T11:10:17.555Z,28.60
2023-04-15T11:12:45.079Z,28.70
2023-04-15T11:15:31.614Z,28.60
2023-04-15T11:17:58.895Z,27.00
2023-04-15T11:20:26.487Z,28.10
2023-04-15T11:23:13.900Z,28.00
2023-04-15T11:25:40.780Z,28.20
2023-04-15T11:28:07.894Z,28.30
2023-04-15T11:30:36.544Z,28.00
2023-04-15T11:33:04.632Z,28.60
2023-04-15T11:35:31.752Z,27.80
2023-04-15T11:37:58.360Z,28.10
2023-04-15T11:40:29.742Z,28.70
2023-04-15T11:43:15.355Z,27.60
2023-04-15T11:45:52.477Z,26.70
2023-04-15T11:48:19.339Z,27.20
2023-04-15T11:50:46.117Z,27.60
2023-04-15T11:53:13.596Z,27.50
2023-04-15T11:55:47.119Z,28.70
2023-04-15T11:58:16.327Z,28.80
2023-04-15T12:00:53.967Z,28.90
2023-04-15T12:03:28.327Z,29.40
2023-04-15T12:06:14.309Z,29.60
2023-04-15T12:08:52.903Z,29.20
2023-04-15T12:11:36.014Z,27.90
2023-04-15T12:14:22.018Z,28.80
2023-04-15T12:16:51.855Z,28.60
2023-04-15T12:19:29.409Z,28.80
2023-04-15T12:22:01.046Z,27.00
2023-04-15T12:24:27.876Z,27.40
2023-04-15T12:26:55.833Z,27.70
2023-04-15T12:29:26.319Z,27.30
2023-04-15T12:32:05.890Z,27.20
2023-04-15T12:34:36.926Z,27.40
2023-04-15T12:37:05.150Z,27.40
2023-04-15T12:39:34.577Z,27.60
2023-04-15T12:42:01.274Z,27.90
2023-04-15T12:44:28.054Z,27.90
2023-04-15T12:46:55.017Z,28.00
2023-04-15T12:49:22.490Z,27.70
2023-04-15T12:51:49.715Z,27.90
2023-04-15T12:54:17.268Z,27.90
2023-04-15T12:56:44.997Z,28.00
2023-04-15T12:59:11.766Z,28.40
2023-04-15T13:01:38.668Z,28.10
2023-04-15T13:04:06.004Z,27.70
2023-04-15T13:06:32.886Z,27.40
2023-04-15T13:09:00.272Z,27.40
2023-04-15T13:11:27.297Z,27.70
2023-04-15T13:13:53.887Z,28.90
2023-04-15T13:16:20.503Z,29.00
2023-04-15T13:18:48.040Z,28.40
2023-04-15T13:21:14.750Z,28.40
2023-04-15T13:23:42.156Z,28.90
2023-04-15T13:26:08.797Z,29.50
2023-04-15T13:28:35.448Z,29.50
2023-04-15T13:31:02.094Z,29.10
2023-04-15T13:33:28.760Z,28.10
2023-04-15T13:35:55.364Z,26.80
2023-04-15T13:38:22.003Z,26.20
2023-04-15T13:40:48.594Z,26.30
2023-04-15T13:43:15.359Z,26.50
2023-04-15T13:45:42.068Z,27.00
2023-04-15T13:48:08.741Z,27.10
2023-04-15T13:50:35.421Z,27.50
2023-04-15T13:53:02.180Z,27.50
2023-04-15T13:55:28.890Z,27.70
2023-04-15T13:57:56.321Z,28.10
2023-04-15T14:00:22.922Z,28.70
2023-04-15T14:02:49.636Z,28.60
2023-04-15T14:05:16.461Z,29.00
2023-04-15T14:07:43.114Z,29.80
2023-04-15T14:10:09.783Z,30.30
2023-04-15T14:12:36.451Z,30.00
2023-04-15T14:15:03.288Z,29.80
2023-04-15T14:17:29.939Z,30.00
2023-04-15T14:19:56.670Z,30.40
2023-04-15T14:22:23.329Z,30.30
2023-04-15T14:24:49.921Z,30.70
2023-04-15T14:27:16.532Z,30.90
2023-04-15T14:29:43.097Z,31.10
2023-04-15T14:32:11.910Z,31.40
2023-04-15T14:34:39.597Z,31.90
2023-04-15T14:37:06.261Z,32.30
2023-04-15T14:39:32.819Z,32.60
2023-04-15T14:41:59.481Z,33.00
2023-04-15T14:44:26.272Z,33.80
2023-04-15T14:46:52.858Z,33.90
2023-04-15T14:49:19.560Z,33.70
2023-04-15T14:51:46.238Z,33.70
2023-04-15T14:54:12.942Z,33.60
2023-04-15T14:56:39.515Z,33.70
2023-04-15T14:59:06.255Z,34.00
2023-04-15T15:01:33.831Z,33.80
2023-04-15T15:04:00.593Z,34.00
2023-04-15T15:06:27.334Z,34.80
2023-04-15T15:08:53.957Z,35.10
2023-04-15T15:11:20.639Z,35.50
2023-04-15T15:13:47.273Z,35.50
2023-04-15T15:16:14.630Z,36.00
2023-04-15T15:18:41.445Z,36.40
2023-04-15T15:21:08.104Z,36.20
2023-04-15T15:23:34.852Z,36.30
2023-04-15T15:26:01.471Z,36.70
2023-04-15T15:28:28.206Z,36.80
2023-04-15T15:30:55.125Z,36.90
2023-04-15T15:33:21.877Z,37.50
2023-04-15T15:35:48.888Z,38.00
2023-04-15T15:38:15.527Z,38.30
2023-04-15T15:40:42.330Z,38.80
2023-04-15T15:43:09.061Z,39.60
2023-04-15T15:45:35.837Z,39.70
2023-04-15T15:48:02.665Z,39.90
2023-04-15T15:50:29.480Z,40.00
2023-04-15T15:52:56.321Z,40.20
2023-04-15T15:55:22.955Z,40.30
2023-04-15T15:57:50.871Z,40.30
2023-04-15T16:00:17.779Z,40.30
2023-04-15T16:05:14.187Z,41.00
2023-04-15T16:07:40.889Z,41.30
2023-04-15T16:10:08.251Z,41.90
2023-04-15T16:12:35.101Z,42.40
2023-04-15T16:15:01.803Z,43.00
2023-04-15T16:17:28.749Z,43.40
2023-04-15T16:20:00.694Z,43.50
2023-04-15T16:22:27.818Z,43.80
2023-04-15T16:24:54.554Z,44.00
2023-04-15T16:27:21.195Z,44.20
2023-04-15T16:29:47.800Z,44.40
2023-04-15T16:32:14.505Z,44.70
2023-04-15T16:34:41.341Z,45.10
2023-04-15T16:37:08.073Z,45.60
2023-04-15T16:39:34.786Z,46.00
2023-04-15T16:42:02.300Z,46.40
2023-04-15T16:44:28.976Z,46.70
2023-04-15T16:46:55.721Z,46.80
2023-04-15T16:49:22.402Z,46.80
2023-04-15T16:51:49.108Z,47.00
2023-04-15T16:54:15.822Z,47.30
2023-04-15T16:56:42.524Z,46.80
2023-04-15T16:59:09.222Z,47.00
2023-04-15T17:01:36.292Z,47.40
2023-04-15T17:04:03.306Z,47.60
2023-04-15T17:06:30.504Z,47.30
2023-04-15T17:08:57.341Z,47.30
2023-04-15T17:11:24.051Z,48.00
2023-04-15T17:13:51.062Z,48.40
2023-04-15T17:16:17.808Z,48.90
2023-04-15T17:18:44.495Z,49.20
2023-04-15T17:21:11.102Z,49.30
2023-04-15T17:23:37.702Z,49.30
2023-04-15T17:26:04.340Z,49.30
2023-04-15T17:28:31.454Z,49.30
2023-04-15T17:30:59.948Z,49.40
2023-04-15T17:34:02.198Z,49.60
2023-04-15T17:36:13.651Z,50.10
2023-04-15T17:38:41.402Z,50.60
2023-04-15T17:41:08.045Z,51.10
2023-04-15T17:43:34.737Z,51.60
2023-04-15T17:46:01.496Z,51.90
2023-04-15T17:48:28.197Z,52.30
2023-04-15T17:50:54.930Z,52.70
2023-04-15T17:53:21.558Z,53.10
2023-04-15T17:55:48.354Z,53.40
2023-04-15T17:58:15.132Z,54.10
2023-04-15T18:00:41.777Z,54.30
2023-04-15T18:03:08.760Z,54.70
2023-04-15T18:05:35.580Z,55.00
2023-04-15T18:08:03.776Z,55.40
2023-04-15T18:10:30.603Z,55.70
2023-04-15T18:12:57.340Z,56.20
2023-04-15T18:15:24.183Z,56.40
2023-04-15T18:17:51.071Z,56.80
2023-04-15T18:20:17.911Z,57.00
2023-04-15T18:22:44.623Z,57.30
2023-04-15T18:25:11.364Z,57.30
2023-04-15T18:27:37.998Z,57.40
2023-04-15T18:30:07.802Z,57.40
2023-04-15T18:32:34.480Z,57.70
2023-04-15T18:35:01.184Z,57.80
2023-04-15T18:37:27.876Z,58.00
2023-04-15T18:39:54.695Z,58.30
2023-04-15T18:42:21.534Z,58.70
2023-04-15T18:44:49.075Z,58.80
2023-04-15T18:47:15.811Z,58.90
2023-04-15T18:49:42.587Z,58.90
2023-04-15T18:52:09.791Z,58.90
2023-04-15T18:54:36.955Z,58.80
2023-04-15T18:57:03.833Z,58.90
2023-04-15T18:59:34.012Z,59.10
2023-04-15T19:02:00.934Z,59.10
2023-04-15T19:04:27.591Z,59.10
2023-04-15T19:06:54.324Z,59.10
2023-04-15T19:09:21.058Z,59.10
2023-04-15T19:11:47.748Z,59.30
2023-04-15T19:14:14.356Z,59.50
2023-04-15T19:16:41.081Z,59.80
2023-04-15T19:19:07.799Z,59.80
2023-04-15T19:21:34.569Z,59.90
2023-04-15T19:24:01.284Z,60.00
2023-04-15T19:26:27.872Z,60.40
2023-04-15T19:29:05.891Z,60.60
2023-04-15T19:31:32.702Z,61.00
2023-04-15T19:33:59.420Z,61.10
2023-04-15T19:36:26.027Z,61.10
2023-04-15T19:38:52.800Z,61.20
2023-04-15T19:41:19.613Z,61.60
2023-04-15T19:43:46.216Z,61.50
2023-04-15T19:46:12.972Z,61.60
2023-04-15T19:48:39.740Z,61.80
2023-04-15T19:51:06.454Z,61.70
2023-04-15T19:53:33.131Z,62.00
2023-04-15T19:55:59.779Z,62.10
2023-04-15T19:58:26.489Z,62.10
2023-04-15T20:00:53.320Z,62.10
2023-04-15T20:03:20.258Z,62.20
2023-04-15T20:05:47.037Z,62.50
2023-04-15T20:08:13.832Z,62.40
2023-04-15T20:10:41.985Z,62.50
2023-04-15T20:13:08.817Z,62.70
2023-04-15T20:15:35.491Z,62.80
2023-04-15T20:18:02.311Z,63.00
2023-04-15T20:20:29.088Z,63.00
2023-04-15T20:22:55.894Z,63.30
2023-04-15T20:25:22.591Z,63.50
2023-04-15T20:27:49.220Z,63.80
2023-04-15T20:30:15.995Z,64.00
2023-04-15T20:32:42.678Z,64.00
2023-04-15T20:35:09.597Z,64.10
2023-04-15T20:37:37.193Z,64.20
2023-04-15T20:40:04.031Z,64.20
2023-04-15T20:42:34.309Z,64.20
2023-04-15T20:45:01.070Z,64.40
2023-04-15T20:47:27.848Z,64.60
2023-04-15T20:49:54.524Z,64.50
2023-04-15T20:52:21.181Z,64.50
2023-04-15T20:54:47.922Z,64.50
2023-04-15T20:57:14.629Z,64.50
2023-04-15T20:59:41.328Z,64.60
2023-04-15T21:02:08.126Z,64.70
2023-04-15T21:04:34.770Z,65.00
2023-04-15T21:07:01.833Z,65.10
2023-04-15T21:09:28.518Z,65.20
2023-04-15T21:12:00.997Z,65.30
2023-04-15T21:14:28.065Z,65.40
2023-04-15T21:16:54.767Z,65.60
2023-04-15T21:19:21.431Z,65.50
2023-04-15T21:21:48.226Z,65.70
2023-04-15T21:24:17.567Z,65.70
2023-04-15T21:26:44.211Z,65.70
2023-04-15T21:29:11.940Z,65.60
2023-04-15T21:31:39.043Z,65.90
2023-04-15T21:34:05.757Z,66.10
2023-04-15T21:36:32.392Z,66.00
2023-04-15T21:38:59.219Z,66.20
2023-04-15T21:41:26.271Z,66.30
2023-04-15T21:43:53.294Z,66.40
2023-04-15T21:46:21.965Z,66.60
2023-04-15T21:48:54.252Z,66.70
2023-04-15T21:51:20.815Z,66.70
2023-04-15T21:53:47.443Z,66.60
2023-04-15T21:56:14.165Z,66.70
2023-04-15T21:58:40.828Z,66.70
2023-04-15T22:01:07.495Z,66.60
2023-04-15T22:03:34.842Z,66.50
2023-04-15T22:06:02.363Z,66.10
2023-04-15T22:08:29.121Z,66.00
2023-04-15T22:10:58.743Z,66.00
2023-04-15T22:13:25.466Z,65.80
2023-04-15T22:15:54.780Z,65.70
2023-04-15T22:18:21.370Z,65.50
2023-04-15T22:20:51.019Z,65.40
2023-04-15T22:23:17.805Z,65.30
2023-04-15T22:25:44.407Z,65.30
2023-04-15T22:28:11.064Z,65.20
2023-04-15T22:30:38.464Z,65.20
2023-04-15T22:33:06.055Z,65.30
2023-04-15T22:35:32.911Z,65.10
2023-04-15T22:37:59.543Z,65.10
2023-04-15T22:40:26.292Z,65.20
2023-04-15T22:42:52.923Z,65.10
2023-04-15T22:45:19.769Z,65.00
2023-04-15T22:47:46.418Z,65.00
2023-04-15T22:50:13.034Z,65.00
2023-04-15T22:52:39.669Z,65.10
2023-04-15T22:55:06.896Z,65.20
2023-04-15T22:57:33.534Z,65.20
2023-04-15T23:00:00.386Z,65.20
2023-04-15T23:02:27.270Z,65.40
2023-04-15T23:04:54.173Z,65.40
2023-04-15T23:07:20.864Z,65.50
2023-04-15T23:09:47.633Z,65.60
2023-04-15T23:12:14.303Z,65.80
2023-04-15T23:14:40.938Z,65.80
2023-04-15T23:17:07.583Z,65.90
2023-04-15T23:19:34.310Z,66.00
2023-04-15T23:22:00.955Z,66.20
2023-04-15T23:24:27.571Z,66.30
2023-04-15T23:26:54.932Z,66.40
2023-04-15T23:29:21.591Z,66.60
2023-04-15T23:31:48.285Z,66.60
2023-04-15T23:34:14.949Z,66.60
2023-04-15T23:36:41.586Z,66.70
2023-04-15T23:39:08.513Z,66.70
2023-04-15T23:41:35.371Z,66.70
2023-04-15T23:44:02.207Z,66.80
2023-04-15T23:46:28.960Z,67.00
2023-04-15T23:48:55.593Z,67.10
2023-04-15T23:51:22.167Z,67.30
2023-04-15T23:53:49.361Z,67.20
2023-04-15T23:56:15.994Z,67.30
2023-04-15T23:58:42.652Z,67.40
